Time;durP1;ratioP1;P1;durP2;ratioP2;P2;SDS_P1;SDS_P2;PMS_P1;PMS_P2;Temp;Humidity;BMP_temperature;BMP_pressure;BME280_temperature;BME280_humidity;BME280_pressure;Samples;Min_cycle;Max_cycle;Signal;HPM_P1;HPM_P2
2023/12/16 00:01:18;;;;;;;19.75;7.45;;;7.40;99.90;;;8.38;100.00;102832.75;5015407;28;20096;-81
2023/12/16 00:03:44;;;;;;;27.40;8.10;;;7.50;99.90;;;8.53;100.00;102820.41;5045171;28;20045;-81
2023/12/16 00:06:09;;;;;;;21.60;7.57;;;7.40;99.90;;;8.61;100.00;102816.94;5029303;28;20038;-83
2023/12/16 00:08:35;;;;;;;22.50;7.25;;;7.30;99.90;;;8.44;100.00;102805.81;5029900;28;20112;-82
2023/12/16 00:11:02;;;;;;;20.02;7.25;;;7.30;99.90;;;8.35;100.00;102795.84;5030026;28;20497;-82
2023/12/16 00:13:28;;;;;;;23.48;8.15;;;7.30;99.90;;;8.52;100.00;102804.25;5029410;28;20555;-83
2023/12/16 00:15:54;;;;;;;24.48;7.25;;;7.40;99.90;;;8.34;100.00;102808.56;5013149;28;20030;-82
2023/12/16 00:18:20;;;;;;;20.85;6.75;;;7.40;99.90;;;8.56;100.00;102820.09;5029616;28;20033;-83
2023/12/16 00:20:47;;;;;;;22.98;7.43;;;7.50;99.90;;;8.57;100.00;102815.53;5029899;28;20034;-83
2023/12/16 00:23:12;;;;;;;25.67;6.78;;;7.50;99.90;;;8.38;100.00;102814.56;5045286;28;20045;-82
2023/12/16 00:25:38;;;;;;;18.65;6.10;;;7.50;99.90;;;8.48;100.00;102822.69;5049776;28;20048;-82
2023/12/16 00:28:04;;;;;;;23.20;6.38;;;7.50;99.90;;;8.43;100.00;102825.84;5038246;28;20037;-82
2023/12/16 00:30:29;;;;;;;21.48;7.00;;;7.40;99.90;;;8.38;100.00;102833.59;5052982;28;20098;-82
2023/12/16 00:32:55;;;;;;;25.60;7.20;;;7.40;99.90;;;8.27;100.00;102839.25;5038400;28;20037;-81
2023/12/16 00:35:21;;;;;;;21.40;6.72;;;7.40;99.90;;;8.33;100.00;102833.19;5041980;28;20037;-82
2023/12/16 00:37:46;;;;;;;23.27;6.30;;;7.40;99.90;;;8.17;100.00;102823.78;5028547;28;20030;-81
2023/12/16 00:40:12;;;;;;;19.13;6.30;;;7.40;99.90;;;8.29;100.00;102823.63;5051313;28;20102;-82
2023/12/16 00:42:38;;;;;;;24.98;6.88;;;7.40;99.90;;;8.18;100.00;102825.50;5040741;28;20029;-81
2023/12/16 00:45:05;;;;;;;17.20;6.07;;;7.30;99.90;;;8.25;100.00;102827.66;5036947;28;20038;-81
2023/12/16 00:47:30;;;;;;;21.63;6.05;;;7.30;99.90;;;8.34;100.00;102832.19;5026974;28;20120;-81
2023/12/16 00:49:56;;;;;;;21.40;6.07;;;7.30;99.90;;;8.24;100.00;102823.22;5019712;28;20044;-82
2023/12/16 00:52:22;;;;;;;23.45;6.82;;;7.30;99.90;;;8.27;100.00;102829.19;5021050;28;20652;-80
2023/12/16 00:54:48;;;;;;;21.15;6.68;;;7.20;99.90;;;8.26;100.00;102829.38;5032021;28;20047;-81
2023/12/16 00:57:14;;;;;;;18.65;5.40;;;7.30;99.90;;;8.29;100.00;102823.63;5033095;28;20758;-81
2023/12/16 00:59:39;;;;;;;17.92;5.13;;;7.30;99.90;;;8.38;100.00;102830.88;5032980;28;20037;-82
2023/12/16 01:02:05;;;;;;;25.73;5.43;;;7.20;99.90;;;8.35;100.00;102823.03;5032861;28;20041;-82
2023/12/16 01:04:31;;;;;;;18.27;6.13;;;7.20;99.90;;;8.28;100.00;102821.91;5065902;28;20050;-82
2023/12/16 01:06:56;;;;;;;21.30;5.93;;;7.20;99.90;;;8.36;100.00;102819.31;5072308;28;20511;-82
2023/12/16 01:09:24;;;;;;;22.63;5.78;;;7.10;99.90;;;8.24;100.00;102825.94;5072481;28;20036;-82
2023/12/16 01:11:50;;;;;;;19.15;5.55;;;7.10;99.90;;;8.28;100.00;102827.34;5071887;28;20388;-82
2023/12/16 01:14:16;;;;;;;19.35;6.10;;;7.00;99.90;;;8.21;100.00;102814.31;5071640;28;20028;-82
2023/12/16 01:16:42;;;;;;;19.17;5.55;;;7.00;99.90;;;8.12;100.00;102817.94;5072231;28;20063;-81
2023/12/16 01:19:07;;;;;;;23.45;5.90;;;6.90;99.90;;;7.86;100.00;102829.44;5066762;28;20046;-82
2023/12/16 01:21:41;;;;;;;23.92;5.85;;;6.90;99.90;;;7.88;100.00;102827.44;5072969;28;20059;-81
2023/12/16 01:24:06;;;;;;;22.80;6.45;;;6.80;99.90;;;7.83;100.00;102823.47;5068258;28;20033;-82
2023/12/16 01:26:32;;;;;;;23.77;6.60;;;6.80;99.90;;;7.94;100.00;102830.56;5069494;28;20123;-82
2023/12/16 01:28:58;;;;;;;19.40;5.80;;;6.80;99.90;;;8.01;100.00;102831.72;5072487;28;20037;-82
2023/12/16 01:31:23;;;;;;;24.80;7.18;;;6.80;99.90;;;7.89;100.00;102826.44;5072036;28;20514;-82
2023/12/16 01:33:49;;;;;;;27.63;6.95;;;6.80;99.90;;;7.99;100.00;102826.41;5072539;28;20036;-82
2023/12/16 01:36:15;;;;;;;25.70;6.75;;;6.80;99.90;;;7.92;100.00;102826.13;5067551;28;20067;-82
2023/12/16 01:38:40;;;;;;;24.65;7.85;;;6.80;99.90;;;7.97;100.00;102827.59;5069767;28;20062;-82
2023/12/16 01:41:06;;;;;;;25.00;6.70;;;6.80;99.90;;;8.03;100.00;102832.44;5070698;28;20033;-83
2023/12/16 01:43:32;;;;;;;20.00;6.32;;;6.80;99.90;;;8.03;100.00;102835.16;5071742;28;20341;-83
2023/12/16 01:46:07;;;;;;;21.65;6.70;;;6.90;99.90;;;8.03;100.00;102830.56;5070331;28;20044;-83
2023/12/16 01:48:34;;;;;;;20.08;5.88;;;6.90;99.90;;;7.97;100.00;102830.31;5065907;28;20033;-83
2023/12/16 01:51:01;;;;;;;18.95;6.25;;;6.90;99.90;;;8.00;100.00;102846.31;5071763;28;20040;-82
2023/12/16 01:53:30;;;;;;;18.30;5.83;;;6.90;99.90;;;8.07;100.00;102839.28;5040848;28;20396;-82
2023/12/16 01:55:57;;;;;;;16.65;6.13;;;6.90;99.90;;;8.05;100.00;102838.56;5069407;28;20036;-82
2023/12/16 01:58:23;;;;;;;22.52;6.35;;;6.90;99.90;;;7.96;100.00;102834.03;5070450;28;20054;-83
2023/12/16 02:00:54;;;;;;;18.83;6.80;;;6.90;99.90;;;7.91;100.00;102829.84;5070927;28;20118;-82
2023/12/16 02:03:21;;;;;;;19.25;5.57;;;6.90;99.90;;;8.04;100.00;102832.25;5059444;28;20131;-82
2023/12/16 02:05:48;;;;;;;16.33;5.47;;;7.00;99.90;;;8.04;100.00;102831.44;5029762;28;20045;-81
2023/12/16 02:08:14;;;;;;;19.67;5.38;;;7.00;99.90;;;8.14;100.00;102842.28;5031475;28;20099;-81
2023/12/16 02:10:40;;;;;;;17.42;5.45;;;7.00;99.90;;;8.13;100.00;102841.41;5031370;28;20105;-82
2023/12/16 02:13:05;;;;;;;14.63;5.18;;;7.00;99.90;;;8.01;100.00;102827.13;5030893;28;20477;-82
2023/12/16 02:15:31;;;;;;;16.15;5.30;;;7.00;99.90;;;8.17;100.00;102831.09;5031170;28;20044;-81
2023/12/16 02:17:57;;;;;;;19.63;5.30;;;7.00;99.90;;;8.19;100.00;102829.94;5031258;28;20033;-82
2023/12/16 02:20:23;;;;;;;15.30;4.75;;;7.00;99.90;;;8.16;100.00;102840.28;5031126;28;20037;-82
2023/12/16 02:22:50;;;;;;;14.15;5.07;;;7.00;99.90;;;8.25;100.00;102844.81;5030582;28;20029;-82
2023/12/16 02:25:17;;;;;;;18.52;5.05;;;7.00;99.90;;;8.28;100.00;102851.84;5046173;28;20041;-82
2023/12/16 02:27:47;;;;;;;14.38;3.85;;;7.00;99.90;;;8.30;100.00;102847.94;5023986;28;20041;-82
2023/12/16 02:30:12;;;;;;;16.40;4.68;;;7.10;99.90;;;8.24;100.00;102840.38;5042940;28;20041;-82
2023/12/16 02:32:41;;;;;;;17.40;4.75;;;7.10;99.90;;;8.20;100.00;102842.53;5043002;28;20091;-81
2023/12/16 02:35:07;;;;;;;12.95;4.18;;;7.10;99.90;;;8.26;100.00;102842.97;5025664;28;20127;-81
2023/12/16 02:37:32;;;;;;;11.77;3.80;;;7.10;99.90;;;8.20;100.00;102838.97;5022207;28;20030;-82
2023/12/16 02:39:58;;;;;;;15.43;4.47;;;7.10;99.90;;;8.29;100.00;102842.66;5028915;28;20037;-82
2023/12/16 02:42:24;;;;;;;13.35;4.22;;;7.10;99.90;;;8.12;100.00;102836.13;5029935;28;20042;-82
2023/12/16 02:44:50;;;;;;;12.02;4.20;;;7.20;99.90;;;8.28;100.00;102839.06;5031104;28;20041;-83
2023/12/16 02:47:15;;;;;;;16.45;3.83;;;7.20;99.90;;;8.32;100.00;102842.38;5030909;28;20481;-82
2023/12/16 02:49:41;;;;;;;12.52;4.10;;;7.20;99.90;;;8.28;100.00;102832.78;5031186;28;20037;-81
2023/12/16 02:52:07;;;;;;;12.25;4.03;;;7.20;99.90;;;8.27;100.00;102834.63;5030651;28;20034;-81
2023/12/16 02:54:33;;;;;;;10.05;3.60;;;7.30;99.90;;;8.31;100.00;102837.94;5031253;28;20045;-81
2023/12/16 02:56:59;;;;;;;12.65;4.20;;;7.20;99.90;;;8.29;100.00;102838.06;5030781;28;20116;-81
2023/12/16 02:59:24;;;;;;;12.25;4.63;;;7.20;99.90;;;8.26;100.00;102842.97;5029629;28;20033;-81
2023/12/16 03:01:50;;;;;;;11.75;3.70;;;7.10;99.90;;;8.13;100.00;102840.56;5030372;28;20034;-81
2023/12/16 03:04:16;;;;;;;16.35;4.10;;;7.10;99.90;;;8.18;100.00;102843.69;5045227;28;20504;-81
2023/12/16 03:06:43;;;;;;;12.82;3.85;;;7.10;99.90;;;8.17;100.00;102847.41;5034062;28;20049;-81
2023/12/16 03:09:09;;;;;;;15.55;3.75;;;7.10;99.90;;;8.33;100.00;102857.69;5029981;28;20064;-81
2023/12/16 03:11:35;;;;;;;12.98;4.15;;;7.10;99.90;;;8.37;100.00;102850.94;5045199;28;20068;-81
2023/12/16 03:14:01;;;;;;;12.13;3.60;;;7.10;99.90;;;8.24;100.00;102853.97;5030118;28;20042;-81
2023/12/16 03:16:26;;;;;;;16.63;3.60;;;7.10;99.90;;;8.17;100.00;102853.69;5015289;28;20045;-81
2023/12/16 03:18:52;;;;;;;14.60;3.50;;;7.10;99.90;;;8.26;100.00;102856.56;5028227;28;20029;-81
2023/12/16 03:21:18;;;;;;;12.68;3.88;;;7.20;99.90;;;8.12;100.00;102826.09;5045357;28;20039;-81
2023/12/16 03:23:43;;;;;;;12.68;3.50;;;7.20;99.90;;;8.28;100.00;102860.00;5029527;28;20514;-81
2023/12/16 03:26:09;;;;;;;17.20;3.88;;;7.20;99.90;;;8.15;100.00;102860.31;5019208;28;20038;-81
2023/12/16 03:28:35;;;;;;;14.13;3.20;;;7.30;99.90;;;8.27;100.00;102852.84;5044383;28;20045;-81
2023/12/16 03:31:01;;;;;;;9.68;3.20;;;7.20;99.90;;;8.35;100.00;102861.09;5029488;28;20052;-81
2023/12/16 03:33:27;;;;;;;9.52;3.22;;;7.20;99.90;;;8.34;100.00;102848.50;5028186;28;20044;-81
2023/12/16 03:35:52;;;;;;;13.35;2.80;;;7.20;99.90;;;8.34;100.00;102848.50;5030542;28;20048;-81
2023/12/16 03:38:18;;;;;;;11.80;3.22;;;7.20;99.90;;;8.15;100.00;102835.84;5044162;28;20053;-81
2023/12/16 03:40:44;;;;;;;13.52;4.32;;;7.20;99.90;;;7.97;100.00;102841.19;5029330;28;20128;-81
2023/12/16 03:43:11;;;;;;;13.55;4.50;;;7.10;99.90;;;8.08;100.00;102849.16;5028947;28;20030;-81
2023/12/16 03:45:37;;;;;;;12.38;3.28;;;7.10;99.90;;;8.15;100.00;102849.44;5029683;28;20091;-81
2023/12/16 03:48:03;;;;;;;13.65;3.58;;;7.00;99.90;;;8.12;100.00;102850.56;5023707;28;20033;-82
2023/12/16 03:50:28;;;;;;;13.30;3.45;;;7.10;99.90;;;8.08;100.00;102841.00;5029977;28;20444;-82
2023/12/16 03:52:54;;;;;;;9.48;2.80;;;7.10;99.90;;;8.19;100.00;102839.97;5028895;28;20392;-82
2023/12/16 03:55:20;;;;;;;11.43;3.00;;;7.10;99.90;;;8.15;100.00;102844.84;5028719;28;20037;-81
2023/12/16 03:57:45;;;;;;;11.05;3.65;;;7.10;99.90;;;8.18;100.00;102847.25;5029349;28;20087;-81
2023/12/16 04:00:12;;;;;;;15.50;2.65;;;7.20;99.90;;;8.26;100.00;102840.25;5027815;28;20041;-81
2023/12/16 04:02:38;;;;;;;10.25;2.70;;;7.30;99.90;;;8.29;100.00;102846.22;5031889;28;20037;-81
2023/12/16 04:05:04;;;;;;;12.77;2.33;;;7.30;99.90;;;8.35;100.00;102850.22;5069137;28;20445;-81
2023/12/16 04:07:29;;;;;;;10.88;2.88;;;7.30;99.90;;;8.34;100.00;102840.34;5069317;28;20072;-81
2023/12/16 04:09:55;;;;;;;14.10;2.72;;;7.40;99.90;;;8.35;100.00;102842.06;5068374;28;20468;-81
2023/12/16 04:12:21;;;;;;;12.55;3.20;;;7.40;99.90;;;8.37;100.00;102836.50;5068929;28;20047;-80
2023/12/16 04:14:46;;;;;;;8.77;2.20;;;7.50;99.90;;;8.43;100.00;102833.16;5069162;28;20072;-81
2023/12/16 04:17:12;;;;;;;10.65;2.55;;;7.50;99.90;;;8.40;100.00;102830.75;5068941;28;20484;-80
2023/12/16 04:19:38;;;;;;;12.60;2.13;;;7.50;99.90;;;8.43;100.00;102819.56;5067908;28;20032;-81
2023/12/16 04:22:04;;;;;;;11.10;2.60;;;7.50;99.90;;;8.31;100.00;102829.78;5050737;28;20035;-81
2023/12/16 04:24:30;;;;;;;11.13;2.10;;;7.50;99.90;;;8.33;100.00;102817.72;5047505;28;20036;-80
2023/12/16 04:26:56;;;;;;;10.93;2.33;;;7.50;99.90;;;8.29;100.00;102802.72;5055035;28;20052;-81
2023/12/16 04:29:21;;;;;;;8.27;2.05;;;7.50;99.90;;;8.40;100.00;102807.13;5068637;28;20048;-81
2023/12/16 04:31:47;;;;;;;10.13;2.47;;;7.50;99.90;;;8.43;100.00;102811.41;5068929;28;20036;-81
2023/12/16 04:34:13;;;;;;;13.25;3.00;;;7.50;99.90;;;8.54;100.00;102818.56;5052099;28;20049;-81
2023/12/16 04:36:38;;;;;;;7.93;2.03;;;7.50;99.90;;;8.52;100.00;102804.25;5069328;28;20040;-82
2023/12/16 04:39:07;;;;;;;11.80;2.15;;;7.50;99.90;;;8.51;100.00;102806.09;5068427;28;20041;-81
2023/12/16 04:41:33;;;;;;;7.85;2.15;;;7.60;99.90;;;8.58;100.00;102807.19;5066762;28;20059;-81
2023/12/16 04:43:59;;;;;;;7.78;2.03;;;7.60;99.90;;;8.44;100.00;102821.28;5063326;28;20056;-80
2023/12/16 04:46:25;;;;;;;7.25;2.08;;;7.60;99.90;;;8.46;100.00;102814.66;5067381;28;20132;-82
2023/12/16 04:48:51;;;;;;;10.70;2.25;;;7.50;99.90;;;8.55;100.00;102828.44;5068647;28;20610;-82
2023/12/16 04:51:19;;;;;;;11.93;2.28;;;7.50;99.90;;;8.47;100.00;102834.59;5068310;28;20028;-81
2023/12/16 04:53:45;;;;;;;;;;;7.50;99.90;;;8.53;100.00;102842.16;5068921;28;20033;-81
2023/12/16 04:56:11;;;;;;;10.77;2.17;;;7.50;99.90;;;8.58;100.00;102855.34;5050074;28;20435;-83
2023/12/16 04:58:36;;;;;;;9.20;1.95;;;7.50;99.90;;;8.54;100.00;102862.94;5068592;28;20506;-82
2023/12/16 05:01:03;;;;;;;9.60;2.78;;;7.50;99.90;;;8.69;100.00;102871.47;5068511;28;20048;-82
2023/12/16 05:03:30;;;;;;;10.07;2.20;;;7.50;99.90;;;8.56;100.00;102868.22;5068356;28;20591;-82
2023/12/16 05:05:56;;;;;;;8.43;2.28;;;7.50;99.90;;;8.47;100.00;102865.34;5037903;28;20481;-81
2023/12/16 05:08:22;;;;;;;13.23;2.38;;;7.50;99.90;;;8.51;100.00;102867.84;5068713;28;20036;-81
2023/12/16 05:10:48;;;;;;;13.10;2.40;;;7.50;99.90;;;8.60;100.00;102873.22;5033007;28;20033;-81
2023/12/16 05:13:17;;;;;;;12.50;2.30;;;7.50;99.90;;;8.60;100.00;102891.41;5033246;28;20095;-81
2023/12/16 05:15:42;;;;;;;8.82;2.42;;;7.50;99.90;;;8.58;100.00;102890.72;5066948;28;20055;-81
2023/12/16 05:18:09;;;;;;;10.00;2.45;;;7.50;99.90;;;8.49;100.00;102889.69;5043813;28;20480;-82
2023/12/16 05:20:35;;;;;;;15.20;2.90;;;7.50;99.90;;;8.53;100.00;102891.13;5068583;28;20476;-82
2023/12/16 05:23:02;;;;;;;10.30;2.60;;;7.50;99.90;;;8.65;100.00;102894.53;5050911;28;20037;-81
2023/12/16 05:25:29;;;;;;;14.63;2.80;;;7.50;99.90;;;8.70;100.00;102896.81;5068157;28;20080;-81
2023/12/16 05:27:58;;;;;;;16.43;2.70;;;7.50;99.90;;;8.65;100.00;102886.38;5068185;28;20502;-81
2023/12/16 05:30:24;;;;;;;11.98;2.55;;;7.50;99.90;;;8.44;100.00;102881.97;5065199;28;20048;-81
2023/12/16 05:32:50;;;;;;;16.63;3.03;;;7.50;99.90;;;8.46;100.00;102879.94;5067350;28;20029;-81
2023/12/16 05:35:18;;;;;;;20.10;3.35;;;7.50;99.90;;;8.64;100.00;102887.38;5067625;28;20071;-82
2023/12/16 05:37:44;;;;;;;10.20;2.30;;;7.50;99.90;;;8.58;100.00;102888.81;5067584;28;20042;-81
2023/12/16 05:40:10;;;;;;;15.43;2.60;;;7.50;99.90;;;8.44;100.00;102881.13;5047383;28;20107;-81
2023/12/16 05:42:36;;;;;;;10.85;3.22;;;7.50;99.90;;;8.54;100.00;102892.00;5069037;28;20040;-79
2023/12/16 05:45:02;;;;;;;15.90;2.90;;;7.40;99.90;;;8.29;100.00;102883.47;5071134;28;20028;-80
2023/12/16 05:47:28;;;;;;;11.60;3.17;;;7.40;99.90;;;8.39;100.00;102889.72;5071262;28;20032;-80
2023/12/16 05:49:54;;;;;;;11.68;3.15;;;7.30;99.90;;;8.29;100.00;102897.91;5071266;28;20077;-80
2023/12/16 05:52:19;;;;;;;7.75;2.33;;;7.30;99.90;;;8.23;100.00;102892.22;5071337;28;20028;-80
2023/12/16 05:54:45;;;;;;;13.65;3.40;;;7.20;99.90;;;8.23;100.00;102906.66;5070697;28;20032;-79
2023/12/16 05:57:11;;;;;;;12.25;2.80;;;7.20;99.90;;;8.03;100.00;102903.13;5071180;28;20041;-80
2023/12/16 05:59:36;;;;;;;11.85;3.03;;;7.10;99.90;;;8.25;100.00;102903.81;5069909;28;20043;-80
2023/12/16 06:02:02;;;;;;;15.38;3.15;;;7.10;99.90;;;8.09;100.00;102883.50;5050209;28;20047;-79
2023/12/16 06:04:28;;;;;;;14.02;3.10;;;7.10;99.90;;;7.98;100.00;102884.50;5071605;28;20515;-79
2023/12/16 06:06:54;;;;;;;10.65;3.13;;;7.00;99.90;;;7.89;100.00;102883.50;5070110;28;20514;-79
2023/12/16 06:09:19;;;;;;;11.05;2.88;;;7.00;99.90;;;7.83;100.00;102883.25;5070556;28;20060;-80
2023/12/16 06:11:45;;;;;;;15.27;3.13;;;7.00;99.90;;;7.76;100.00;102891.94;5067322;28;20443;-80
2023/12/16 06:14:11;;;;;;;14.13;3.20;;;6.90;99.90;;;7.84;100.00;102885.81;5070679;28;20037;-80
2023/12/16 06:16:36;;;;;;;15.07;2.85;;;6.80;99.90;;;7.75;100.00;102903.81;5070114;28;20029;-80
2023/12/16 06:19:02;;;;;;;15.85;3.40;;;6.90;99.90;;;7.72;100.00;102906.81;5051291;28;20404;-80
2023/12/16 06:21:29;;;;;;;12.55;3.25;;;6.90;99.90;;;7.71;100.00;102907.00;5056432;28;20136;-80
2023/12/16 06:23:58;;;;;;;13.35;3.17;;;6.80;99.90;;;7.69;100.00;102903.53;5070453;28;20033;-80
2023/12/16 06:26:24;;;;;;;14.98;3.92;;;6.90;99.90;;;7.77;100.00;102909.97;5069689;28;20091;-80
2023/12/16 06:28:50;;;;;;;14.98;3.58;;;6.80;99.90;;;7.63;100.00;102894.94;5069509;28;20112;-80
2023/12/16 06:31:19;;;;;;;15.35;3.13;;;6.80;99.90;;;7.71;100.00;102912.41;5068407;28;20084;-81
2023/12/16 06:33:45;;;;;;;14.18;3.15;;;6.80;99.90;;;7.73;100.00;102921.28;5068735;28;20376;-80
2023/12/16 06:36:11;;;;;;;13.15;3.50;;;6.80;99.90;;;7.69;100.00;102920.69;5068835;28;20044;-80
2023/12/16 06:38:37;;;;;;;13.80;3.50;;;6.80;99.90;;;7.64;100.00;102933.84;5070723;28;20043;-81
2023/12/16 06:41:04;;;;;;;12.65;3.38;;;6.80;99.90;;;7.55;100.00;102924.69;5058023;28;20045;-81
2023/12/16 06:43:30;;;;;;;13.25;3.30;;;6.80;99.90;;;7.63;100.00;102921.28;5058503;28;20029;-82
2023/12/16 06:45:56;;;;;;;11.98;3.50;;;6.90;99.90;;;7.62;100.00;102931.25;5067784;28;20041;-79
2023/12/16 06:48:22;;;;;;;14.75;3.58;;;6.90;99.90;;;7.74;100.00;102928.44;5044978;28;20039;-80
2023/12/16 06:50:51;;;;;;;12.75;3.78;;;6.80;99.90;;;7.75;100.00;102939.16;5069106;28;20495;-80
2023/12/16 06:53:17;;;;;;;14.15;3.10;;;6.90;99.90;;;7.71;100.00;102945.88;5071003;28;20518;-81
2023/12/16 06:55:43;;;;;;;10.93;3.30;;;6.80;99.90;;;7.70;100.00;102937.88;5069590;28;20036;-80
2023/12/16 06:58:08;;;;;;;12.60;3.65;;;6.90;99.90;;;7.69;100.00;102936.13;5070805;28;20032;-80
2023/12/16 07:00:34;;;;;;;16.20;3.17;;;6.90;99.90;;;7.59;100.00;102926.13;5038436;28;20505;-81
2023/12/16 07:03:00;;;;;;;15.63;3.78;;;6.90;99.90;;;7.56;100.00;102907.41;5070214;28;20040;-82
2023/12/16 07:05:28;;;;;;;14.85;3.70;;;6.90;99.90;;;7.66;100.00;102937.28;5070155;28;20040;-82
2023/12/16 07:07:54;;;;;;;12.13;3.35;;;7.00;99.90;;;7.61;100.00;102929.56;5069814;28;20072;-82
2023/12/16 07:10:20;;;;;;;15.65;3.60;;;6.90;99.90;;;7.55;100.00;102908.41;5069937;28;20044;-82
2023/12/16 07:12:45;;;;;;;15.68;3.40;;;6.90;99.90;;;7.69;100.00;102925.25;5070483;28;20044;-83
2023/12/16 07:15:12;;;;;;;15.88;3.83;;;6.90;99.90;;;7.60;100.00;102918.84;5069943;28;20082;-83
2023/12/16 07:17:38;;;;;;;20.55;4.38;;;6.90;99.90;;;7.63;100.00;102922.13;5070524;28;20447;-82
2023/12/16 07:20:05;;;;;;;10.90;3.47;;;6.90;99.90;;;7.61;100.00;102934.16;5067860;28;20128;-82
2023/12/16 07:22:31;;;;;;;14.50;3.85;;;6.90;99.90;;;7.67;100.00;102921.81;5067725;28;20055;-83
2023/12/16 07:24:57;;;;;;;16.15;4.00;;;6.90;99.90;;;7.63;100.00;102918.56;5038553;28;20492;-81
2023/12/16 07:27:22;;;;;;;16.58;3.90;;;6.90;99.90;;;7.68;100.00;102919.00;5068589;28;20033;-80
2023/12/16 07:29:50;;;;;;;15.82;3.78;;;6.90;99.90;;;7.66;100.00;102920.13;5050245;28;20068;-80
2023/12/16 07:32:16;;;;;;;18.27;4.22;;;6.90;99.90;;;7.45;100.00;102924.66;5065500;28;20111;-82
2023/12/16 07:34:42;;;;;;;14.15;3.63;;;6.90;99.90;;;7.49;100.00;102926.09;5068589;28;20035;-81
2023/12/16 07:37:08;;;;;;;14.98;4.00;;;6.80;99.90;;;7.51;100.00;102938.69;5069058;28;20048;-81
2023/12/16 07:39:33;;;;;;;12.80;3.47;;;6.70;99.90;;;7.40;100.00;102921.53;5067288;28;20392;-80
2023/12/16 07:41:59;;;;;;;20.27;3.80;;;6.60;99.90;;;7.41;100.00;102923.25;5070432;28;20032;-79
2023/12/16 07:44:27;;;;;;;14.93;3.85;;;6.60;99.90;;;7.33;100.00;102915.78;5067084;28;20028;-82
2023/12/16 07:46:52;;;;;;;18.90;3.67;;;6.60;99.90;;;7.34;100.00;102933.78;5072720;28;20051;-81
2023/12/16 07:49:22;;;;;;;19.73;4.80;;;6.50;99.90;;;7.34;100.00;102939.22;5072495;28;20036;-81
2023/12/16 07:51:48;;;;;;;11.52;3.30;;;6.50;99.90;;;7.16;100.00;102908.31;5072794;28;20044;-82
2023/12/16 07:54:13;;;;;;;16.63;4.03;;;6.40;99.90;;;7.22;100.00;102923.19;5058305;28;20049;-82
2023/12/16 07:56:39;;;;;;;18.00;3.92;;;6.40;99.90;;;7.16;100.00;102919.16;5070955;28;20793;-81
2023/12/16 07:59:05;;;;;;;18.00;4.45;;;6.40;99.90;;;7.13;100.00;102908.59;5071961;28;20544;-80
2023/12/16 08:01:30;;;;;;;11.25;3.88;;;6.40;99.90;;;7.09;100.00;102912.56;5043655;28;20048;-80
2023/12/16 08:03:56;;;;;;;13.98;4.30;;;6.40;99.90;;;7.18;100.00;102918.03;5055545;28;20106;-81
2023/12/16 08:06:22;;;;;;;16.65;3.95;;;6.40;99.90;;;7.20;100.00;102916.03;5070359;28;20399;-81
2023/12/16 08:08:47;;;;;;;15.20;3.80;;;6.40;99.90;;;7.22;100.00;102923.19;5067746;28;20051;-81
2023/12/16 08:11:13;;;;;;;18.45;3.95;;;6.40;99.90;;;7.07;100.00;102898.28;5058954;28;20110;-79
2023/12/16 08:13:39;;;;;;;16.23;3.92;;;6.50;99.90;;;7.17;100.00;102901.91;5075509;28;20377;-79
2023/12/16 08:16:07;;;;;;;16.42;4.18;;;6.50;99.90;;;7.22;100.00;102899.63;5055982;28;20044;-80
2023/12/16 08:18:32;;;;;;;16.48;4.28;;;6.60;99.90;;;7.23;100.00;102887.75;5070490;28;20480;-80
2023/12/16 08:20:58;;;;;;;19.00;3.88;;;6.60;99.90;;;7.32;100.00;102886.91;5068735;28;20040;-81
2023/12/16 08:23:24;;;;;;;15.32;3.50;;;6.70;99.90;;;7.41;100.00;102879.78;5068415;28;20118;-81
2023/12/16 08:25:50;;;;;;;12.70;3.50;;;6.70;99.90;;;7.33;100.00;102871.50;5070637;28;20054;-80
2023/12/16 08:28:16;;;;;;;11.88;3.53;;;6.70;99.90;;;7.49;100.00;102887.22;5070978;28;20376;-81
2023/12/16 08:30:44;;;;;;;14.57;3.50;;;6.70;99.90;;;7.54;100.00;102895.81;5069492;28;20083;-81
2023/12/16 08:33:10;;;;;;;13.98;3.35;;;6.70;99.90;;;7.67;100.00;102883.78;5067884;28;20040;-81
2023/12/16 08:35:38;;;;;;;16.45;3.42;;;6.80;99.90;;;7.57;100.00;102894.69;5063660;28;20040;-80
2023/12/16 08:38:04;;;;;;;14.90;3.67;;;6.90;99.90;;;7.67;100.00;102894.66;5066733;28;20037;-80
2023/12/16 08:40:30;;;;;;;12.63;3.58;;;7.00;99.90;;;7.81;100.00;102899.69;5067736;28;20045;-79
2023/12/16 08:42:56;;;;;;;11.82;3.63;;;7.10;99.90;;;7.91;100.00;102907.84;5066769;28;20036;-79
2023/12/16 08:45:22;;;;;;;13.93;3.40;;;7.20;99.90;;;8.03;100.00;102911.25;5066874;28;20176;-80
2023/12/16 08:47:47;;;;;;;12.05;3.35;;;7.30;99.90;;;8.21;100.00;102908.66;5067596;28;20404;-79
2023/12/16 08:50:13;;;;;;;14.70;3.80;;;7.40;99.90;;;8.26;100.00;102910.94;5067762;28;20127;-78
2023/12/16 08:52:40;;;;;;;12.80;3.10;;;7.50;99.90;;;8.35;100.00;102900.06;5063008;28;20032;-78
2023/12/16 08:55:06;;;;;;;12.82;3.42;;;7.60;99.90;;;8.19;100.00;102902.50;5067526;28;20041;-77
2023/12/16 08:57:32;;;;;;;12.32;3.17;;;7.70;99.90;;;8.18;100.00;102909.78;5068765;28;20473;-76
2023/12/16 08:59:58;;;;;;;19.95;3.75;;;7.70;99.90;;;8.52;100.00;102913.06;5068276;28;20129;-76
2023/12/16 09:02:24;;;;;;;19.08;3.95;;;7.70;99.90;;;8.49;100.00;102915.09;5061885;28;20485;-77
2023/12/16 09:04:50;;;;;;;15.40;3.67;;;7.80;99.90;;;8.46;100.00;102904.44;5063604;28;20070;-78
2023/12/16 09:07:17;;;;;;;16.27;4.80;;;7.90;99.90;;;8.72;100.00;102911.97;5062784;28;20036;-76
2023/12/16 09:09:44;;;;;;;14.32;3.20;;;8.00;99.90;;;8.83;100.00;102913.66;5038148;28;20484;-77
2023/12/16 09:12:10;;;;;;;17.00;3.40;;;8.20;99.90;;;9.14;100.00;102904.34;5068069;28;20484;-77
2023/12/16 09:14:38;;;;;;;12.95;3.28;;;8.50;99.90;;;9.61;100.00;102923.25;5068851;28;20331;-77
2023/12/16 09:17:04;;;;;;;13.02;3.08;;;8.80;99.90;;;9.66;100.00;102920.06;5072195;28;20123;-77
2023/12/16 09:19:30;;;;;;;15.02;3.35;;;9.00;99.90;;;9.67;100.00;102901.84;5041842;28;20100;-79
2023/12/16 09:21:56;;;;;;;13.48;2.97;;;9.00;99.90;;;9.47;100.00;102912.88;5072599;28;20407;-79
2023/12/16 09:24:22;;;;;;;10.45;3.00;;;8.90;99.90;;;9.43;100.00;102914.22;5072179;28;20029;-78
2023/12/16 09:26:48;;;;;;;13.90;3.20;;;9.00;99.90;;;9.53;100.00;102912.25;5054243;28;20484;-79
2023/12/16 09:29:14;;;;;;;13.15;3.28;;;9.00;99.90;;;9.67;100.00;102919.03;5070971;28;20043;-79
2023/12/16 09:31:40;;;;;;;14.88;3.20;;;9.00;99.90;;;9.57;100.00;102921.88;5072520;28;20388;-79
2023/12/16 09:34:06;;;;;;;12.27;3.45;;;8.90;99.90;;;9.56;100.00;102930.19;5070862;28;20130;-79
2023/12/16 09:36:31;;;;;;;15.48;3.10;;;8.90;99.90;;;9.48;100.00;102942.72;5072571;28;20036;-78
2023/12/16 09:38:58;;;;;;;14.57;3.10;;;8.80;99.90;;;9.33;100.00;102941.50;5050744;28;20036;-77
2023/12/16 09:41:31;;;;;;;15.30;3.28;;;8.70;99.90;;;9.08;100.00;102938.47;5070795;28;20028;-79
2023/12/16 09:44:00;;;;;;;12.77;2.95;;;8.60;99.90;;;9.16;100.00;102933.16;5072000;28;20040;-77
2023/12/16 09:46:33;;;;;;;14.60;3.30;;;8.50;99.90;;;9.03;100.00;102925.34;5059315;28;20479;-78
2023/12/16 09:49:02;;;;;;;12.82;2.75;;;8.40;99.90;;;9.18;100.00;102933.00;5071353;28;20062;-78
2023/12/16 09:51:28;;;;;;;10.52;2.40;;;8.40;99.90;;;8.98;100.00;102922.19;5065846;28;20115;-77
2023/12/16 09:53:55;;;;;;;11.65;2.80;;;8.40;99.90;;;9.09;100.00;102923.84;5072041;28;20090;-78
2023/12/16 09:56:21;;;;;;;12.30;2.80;;;8.40;99.90;;;9.02;100.00;102920.03;5057309;28;20082;-79
2023/12/16 09:58:51;;;;;;;6.35;2.50;;;8.40;99.90;;;9.10;100.00;102913.84;5071611;28;20032;-79
2023/12/16 10:01:17;;;;;;;16.33;2.97;;;8.40;99.90;;;9.24;100.00;102929.66;5046150;28;20102;-79
2023/12/16 10:03:47;;;;;;;16.02;3.10;;;8.50;99.90;;;9.05;100.00;102917.88;5070312;28;20040;-77
2023/12/16 10:06:12;;;;;;;14.43;3.10;;;8.50;99.90;;;9.06;100.00;102911.41;5071566;28;20050;-77
2023/12/16 10:08:40;;;;;;;15.05;3.25;;;8.50;99.90;;;9.09;100.00;102934.75;5044951;28;20033;-77